createdAt,value
2019-05-11T00:01:39.942Z,3.25
2019-05-11T00:04:33.002Z,2.33
2019-05-11T00:07:26.314Z,2.35
2019-05-11T00:10:15.567Z,1.37
2019-05-11T00:13:08.846Z,1.40
2019-05-11T00:16:09.578Z,2.52
2019-05-11T00:19:02.632Z,3.33
2019-05-11T00:21:56.201Z,3.17
2019-05-11T00:24:45.514Z,2.72
2019-05-11T00:27:38.515Z,4.90
2019-05-11T00:30:31.272Z,1.70
2019-05-11T00:33:35.598Z,1.52
2019-05-11T00:36:28.392Z,2.37
2019-05-11T00:39:13.772Z,2.72
2019-05-11T00:42:06.825Z,3.17
2019-05-11T00:44:59.883Z,1.98
2019-05-11T00:47:52.681Z,1.70
2019-05-11T00:50:46.505Z,1.62
2019-05-11T00:53:39.564Z,2.25
2019-05-11T00:56:32.359Z,3.00
2019-05-11T00:59:22.244Z,3.20
2019-05-11T01:02:21.803Z,1.42
2019-05-11T01:05:14.855Z,3.42
2019-05-11T01:08:07.912Z,3.60
2019-05-11T01:11:01.739Z,1.65
2019-05-11T01:13:54.538Z,1.92
2019-05-11T01:16:47.340Z,2.05
2019-05-11T01:19:40.135Z,2.05
2019-05-11T01:22:32.936Z,1.10
2019-05-11T01:25:25.739Z,3.22
2019-05-11T01:28:19.047Z,2.65
2019-05-11T01:31:12.872Z,1.72
2019-05-11T01:34:05.673Z,1.27
2019-05-11T01:36:58.473Z,3.02
2019-05-11T01:39:51.531Z,3.17
2019-05-11T01:42:44.333Z,2.02
2019-05-11T01:45:37.382Z,2.77
2019-05-11T01:48:31.463Z,1.60
2019-05-11T01:51:24.270Z,2.10
2019-05-11T01:54:18.347Z,1.20
2019-05-11T01:57:11.405Z,1.50
2019-05-11T02:00:17.007Z,4.25
2019-05-11T02:03:06.380Z,2.02
2019-05-11T02:06:09.607Z,2.50
2019-05-11T02:08:59.754Z,3.37
2019-05-11T02:11:52.810Z,3.62
2019-05-11T02:14:45.611Z,3.00
2019-05-11T02:17:38.416Z,1.75
2019-05-11T02:20:31.207Z,3.37
2019-05-11T02:23:24.006Z,2.42
2019-05-11T02:26:16.814Z,1.92
2019-05-11T02:29:10.120Z,2.22
2019-05-11T02:32:02.922Z,2.58
2019-05-11T02:34:55.978Z,1.20
2019-05-11T02:37:49.037Z,1.35
2019-05-11T02:40:42.352Z,1.22
2019-05-11T02:43:31.469Z,1.25
2019-05-11T02:46:25.383Z,3.22
2019-05-11T02:49:18.444Z,2.85
2019-05-11T02:52:12.009Z,3.50
2019-05-11T02:55:05.327Z,3.90
2019-05-11T02:57:58.127Z,1.42
2019-05-11T03:01:02.445Z,3.47
2019-05-11T03:03:55.504Z,2.00
2019-05-11T03:06:49.321Z,3.58
2019-05-11T03:09:42.377Z,1.77
2019-05-11T03:12:46.955Z,3.95
2019-05-11T03:15:39.755Z,1.87
2019-05-11T03:18:33.064Z,1.98
2019-05-11T03:21:26.122Z,1.60
2019-05-11T03:24:19.176Z,1.90
2019-05-11T03:27:19.655Z,2.15
2019-05-11T03:30:15.537Z,1.10
2019-05-11T03:33:04.750Z,1.72
2019-05-11T03:35:54.127Z,1.32
2019-05-11T03:38:43.357Z,1.15
2019-05-11T03:41:32.655Z,2.15
2019-05-11T03:44:26.730Z,1.98
2019-05-11T03:47:19.786Z,1.40
2019-05-11T03:50:12.883Z,0.72
2019-05-11T03:53:06.666Z,1.05
2019-05-11T03:55:59.741Z,1.70
2019-05-11T03:58:52.542Z,1.35
2019-05-11T04:01:45.590Z,1.10
2019-05-11T04:04:41.450Z,1.95
2019-05-11T04:07:34.504Z,1.45
2019-05-11T04:10:27.563Z,2.60
2019-05-11T04:13:20.363Z,2.60
2019-05-11T04:16:16.232Z,1.37
2019-05-11T04:19:09.288Z,1.27
2019-05-11T04:22:02.090Z,0.70
2019-05-11T04:24:55.150Z,0.88
2019-05-11T04:27:47.942Z,0.80
2019-05-11T04:30:40.746Z,1.32
2019-05-11T04:33:33.629Z,0.98
2019-05-11T04:36:26.351Z,0.80
2019-05-11T04:39:20.426Z,1.55
2019-05-11T04:42:09.407Z,0.80
2019-05-11T04:45:02.188Z,2.98
2019-05-11T04:47:55.752Z,2.08
2019-05-11T04:50:45.118Z,1.07
2019-05-11T04:53:38.282Z,0.68
2019-05-11T04:56:25.449Z,0.70
2019-05-11T04:59:18.251Z,1.92
2019-05-11T05:02:11.306Z,0.85
2019-05-11T05:05:04.106Z,1.32
2019-05-11T05:08:08.549Z,1.52
2019-05-11T05:10:52.435Z,1.10
2019-05-11T05:13:55.303Z,1.00
2019-05-11T05:16:48.360Z,1.85
2019-05-11T05:19:41.166Z,2.22
2019-05-11T05:22:34.218Z,1.47
2019-05-11T05:25:27.276Z,1.85
2019-05-11T05:28:20.083Z,2.12
2019-05-11T05:31:12.871Z,3.02
2019-05-11T05:34:02.088Z,3.05
2019-05-11T05:36:54.887Z,3.55
2019-05-11T05:39:47.945Z,2.67
2019-05-11T05:42:40.999Z,2.25
2019-05-11T05:45:34.057Z,1.98
2019-05-11T05:48:27.624Z,2.50
2019-05-11T05:51:20.429Z,2.95
2019-05-11T05:54:13.994Z,3.33
2019-05-11T05:57:08.328Z,3.77
2019-05-11T06:00:56.937Z,3.62
2019-05-11T06:03:49.997Z,4.10
2019-05-11T06:06:42.795Z,4.15
2019-05-11T06:09:35.590Z,8.23
2019-05-11T06:12:28.399Z,5.53
2019-05-11T06:15:21.194Z,8.50
2019-05-11T06:18:14.248Z,3.42
2019-05-11T06:21:07.563Z,4.08
2019-05-11T06:24:06.169Z,11.10
2019-05-11T06:26:54.697Z,7.78
2019-05-11T06:29:47.755Z,6.12
2019-05-11T06:32:40.808Z,7.62
2019-05-11T06:35:34.631Z,6.25
2019-05-11T06:38:27.690Z,6.17
2019-05-11T06:41:17.415Z,6.42
2019-05-11T06:44:17.644Z,6.55
2019-05-11T06:47:10.440Z,5.22
2019-05-11T06:50:03.495Z,8.28
2019-05-11T06:52:56.551Z,4.92
2019-05-11T06:55:58.057Z,6.30
2019-05-11T06:58:51.882Z,5.42
2019-05-11T07:01:45.974Z,6.03
2019-05-11T07:04:39.273Z,6.15
2019-05-11T07:07:46.530Z,4.95
2019-05-11T07:10:28.460Z,6.35
2019-05-11T07:13:17.867Z,5.37
2019-05-11T07:16:10.729Z,4.72
2019-05-11T07:19:04.040Z,4.95
2019-05-11T07:21:56.846Z,5.60
2019-05-11T07:24:49.897Z,5.35
2019-05-11T07:27:42.956Z,7.83
2019-05-11T07:30:36.009Z,7.75
2019-05-11T07:33:28.847Z,4.80
2019-05-11T07:36:18.192Z,5.72
2019-05-11T07:39:12.104Z,4.55
2019-05-11T07:42:05.163Z,5.55
2019-05-11T07:44:59.243Z,6.20
2019-05-11T07:47:52.301Z,5.60
2019-05-11T07:50:47.981Z,3.87
2019-05-11T07:53:38.928Z,6.03
2019-05-11T07:56:34.793Z,4.33
2019-05-11T07:59:28.930Z,3.80
2019-05-11T08:02:20.903Z,3.47
2019-05-11T08:05:13.708Z,4.80
2019-05-11T08:08:08.697Z,6.62
2019-05-11T08:11:00.590Z,5.80
2019-05-11T08:13:51.094Z,3.02
2019-05-11T08:16:44.145Z,3.92
2019-05-11T08:19:38.446Z,5.17
2019-05-11T08:22:30.505Z,4.55
2019-05-11T08:25:39.181Z,4.22
2019-05-11T08:28:32.232Z,4.75
2019-05-11T08:31:38.484Z,5.37
2019-05-11T08:34:30.120Z,3.67
2019-05-11T08:37:23.177Z,5.12
2019-05-11T08:40:18.329Z,3.90
2019-05-11T08:43:09.290Z,8.38
2019-05-11T08:46:02.602Z,5.45
2019-05-11T08:48:56.680Z,4.00
2019-05-11T08:51:49.741Z,6.05
2019-05-11T08:54:42.793Z,5.30
2019-05-11T08:57:35.848Z,5.83
2019-05-11T09:00:28.903Z,5.03
2019-05-11T09:03:21.960Z,4.72
2019-05-11T09:06:18.110Z,7.25
2019-05-11T09:09:13.187Z,7.08
2019-05-11T09:12:04.714Z,9.85
2019-05-11T09:14:58.300Z,11.15
2019-05-11T09:17:51.094Z,9.93
2019-05-11T09:20:41.415Z,6.80
2019-05-11T09:23:37.066Z,10.90
2019-05-11T09:26:23.600Z,15.43
2019-05-11T09:29:18.002Z,8.55
2019-05-11T09:32:09.965Z,10.70
2019-05-11T09:35:03.029Z,16.82
2019-05-11T09:38:09.127Z,14.43
2019-05-11T09:41:01.938Z,12.33
2019-05-11T09:43:54.728Z,14.83
2019-05-11T09:46:48.812Z,14.33
2019-05-11T09:49:47.556Z,17.25
2019-05-11T09:52:32.580Z,17.65
2019-05-11T09:55:24.392Z,16.37
2019-05-11T09:58:25.131Z,19.35
2019-05-11T10:01:18.447Z,20.35
2019-05-11T10:04:12.269Z,20.40
2019-05-11T10:07:05.321Z,16.62
2019-05-11T10:09:58.619Z,25.32
2019-05-11T10:12:52.940Z,20.88
2019-05-11T10:15:59.230Z,29.50
2019-05-11T10:18:38.684Z,21.87
2019-05-11T10:21:33.938Z,23.77
2019-05-11T10:24:28.281Z,17.10
2019-05-11T10:27:20.047Z,15.00
2019-05-11T10:30:13.102Z,19.20
2019-05-11T10:33:08.107Z,14.98
2019-05-11T10:36:02.586Z,19.42
2019-05-11T10:38:52.009Z,13.18
2019-05-11T10:41:45.066Z,11.35
2019-05-11T10:44:38.589Z,11.35
2019-05-11T10:47:31.689Z,8.93
2019-05-11T10:50:24.746Z,10.13
2019-05-11T10:53:18.546Z,7.70
2019-05-11T10:56:10.857Z,6.15
2019-05-11T10:59:05.197Z,10.20
2019-05-11T11:01:59.022Z,7.78
2019-05-11T11:04:51.049Z,4.83
2019-05-11T11:07:44.373Z,5.20
2019-05-11T11:10:37.999Z,4.05
2019-05-11T11:13:30.474Z,5.85
2019-05-11T11:16:35.835Z,5.00
2019-05-11T11:19:18.336Z,5.95
2019-05-11T11:22:29.353Z,5.45
2019-05-11T11:24:58.972Z,4.15
2019-05-11T11:27:51.403Z,6.87
2019-05-11T11:30:44.460Z,4.87
2019-05-11T11:33:38.227Z,4.58
2019-05-11T11:36:30.573Z,2.90
2019-05-11T11:39:20.042Z,3.98
2019-05-11T11:42:13.107Z,5.08
2019-05-11T11:45:08.010Z,5.37
2019-05-11T11:47:58.476Z,3.47
2019-05-11T11:50:51.496Z,7.92
2019-05-11T11:53:44.298Z,4.95
2019-05-11T11:56:37.993Z,3.95
2019-05-11T11:59:31.177Z,3.60
2019-05-11T12:02:27.919Z,4.28
2019-05-11T12:05:20.391Z,3.47
2019-05-11T12:08:13.416Z,6.15
2019-05-11T12:11:07.958Z,5.17
2019-05-11T12:14:00.298Z,6.42
2019-05-11T12:17:04.887Z,3.67
2019-05-11T12:19:47.830Z,4.67
2019-05-11T12:22:38.439Z,2.58
2019-05-11T12:25:29.704Z,6.37
2019-05-11T12:28:23.017Z,3.70
2019-05-11T12:31:24.011Z,3.02
2019-05-11T12:34:17.969Z,3.45
2019-05-11T12:37:10.122Z,3.60
2019-05-11T12:40:03.438Z,4.08
2019-05-11T12:42:59.027Z,3.95
2019-05-11T12:45:58.750Z,3.52
2019-05-11T12:48:52.341Z,5.03
2019-05-11T12:51:45.384Z,3.00
2019-05-11T12:54:38.551Z,3.65
2019-05-11T12:57:38.922Z,3.00
2019-05-11T13:00:31.724Z,1.60
2019-05-11T13:03:25.042Z,1.37
2019-05-11T13:06:27.880Z,1.35
2019-05-11T13:09:19.592Z,2.22
2019-05-11T13:12:12.907Z,3.52
2019-05-11T13:15:14.669Z,3.35
2019-05-11T13:18:08.372Z,1.90
2019-05-11T13:21:01.038Z,4.40
2019-05-11T13:23:54.087Z,1.95
2019-05-11T13:26:48.538Z,3.60
2019-05-11T13:29:40.968Z,3.33
2019-05-11T13:32:34.286Z,3.35
2019-05-11T13:35:28.543Z,4.50
2019-05-11T13:38:20.648Z,2.17
2019-05-11T13:41:13.705Z,5.70
2019-05-11T13:44:07.971Z,2.67
2019-05-11T13:46:59.815Z,5.28
2019-05-11T13:49:52.873Z,3.60
2019-05-11T13:52:47.816Z,3.30
2019-05-11T13:55:40.524Z,3.15
2019-05-11T13:58:33.581Z,2.37
2019-05-11T14:01:27.873Z,4.12
2019-05-11T14:04:18.182Z,2.02
2019-05-11T14:07:14.542Z,1.52
2019-05-11T14:10:15.270Z,3.60
2019-05-11T14:13:08.912Z,4.72
2019-05-11T14:16:01.897Z,1.92
2019-05-11T14:18:54.960Z,1.70
2019-05-11T14:21:48.942Z,4.62
2019-05-11T14:24:41.066Z,3.40
2019-05-11T14:27:34.417Z,4.03
2019-05-11T14:30:28.984Z,2.65
2019-05-11T14:33:18.335Z,2.95
2019-05-11T14:36:12.264Z,3.83
2019-05-11T14:39:08.116Z,7.28
2019-05-11T14:42:08.615Z,3.62
2019-05-11T14:45:01.701Z,3.15
2019-05-11T14:47:54.737Z,2.65
2019-05-11T14:50:48.960Z,2.45
2019-05-11T14:53:40.842Z,3.60
2019-05-11T14:59:48.237Z,1.65
2019-05-11T15:02:50.486Z,2.67
2019-05-11T15:05:41.427Z,3.90
2019-05-11T15:08:32.496Z,3.87
2019-05-11T15:11:21.710Z,1.55
2019-05-11T15:14:10.922Z,3.70
2019-05-11T15:17:00.147Z,5.47
2019-05-11T15:19:53.196Z,4.55
2019-05-11T15:22:48.904Z,4.22
2019-05-11T15:25:40.585Z,3.52
2019-05-11T15:28:33.645Z,2.58
2019-05-11T15:31:27.977Z,4.05
2019-05-11T15:34:18.545Z,4.17
2019-05-11T15:37:10.761Z,2.08
2019-05-11T15:40:04.071Z,5.67
2019-05-11T15:42:58.557Z,4.60
2019-05-11T15:45:50.470Z,0.85
2019-05-11T15:48:55.859Z,2.08
2019-05-11T15:51:38.340Z,4.55
2019-05-11T15:54:29.117Z,6.42
2019-05-11T15:57:21.899Z,4.10
2019-05-11T16:00:11.117Z,2.42
2019-05-11T16:03:13.130Z,1.95
2019-05-11T16:06:07.890Z,4.03
2019-05-11T16:09:01.550Z,4.42
2019-05-11T16:11:54.348Z,3.42
2019-05-11T16:14:48.583Z,2.52
2019-05-11T16:17:40.974Z,2.87
2019-05-11T16:20:41.970Z,2.90
2019-05-11T16:23:35.272Z,5.22
2019-05-11T16:26:28.245Z,3.02
2019-05-11T16:29:21.640Z,2.30
2019-05-11T16:32:14.950Z,3.83
2019-05-11T16:35:08.978Z,4.33
2019-05-11T16:38:10.723Z,5.65
2019-05-11T16:41:02.313Z,3.42
2019-05-11T16:47:03.020Z,5.03
2019-05-11T16:49:57.877Z,4.20
2019-05-11T16:52:48.874Z,3.00
2019-05-11T16:55:41.931Z,2.58
2019-05-11T16:58:31.637Z,3.67
2019-05-11T17:01:24.714Z,4.47
2019-05-11T17:04:14.187Z,2.45
2019-05-11T17:07:08.272Z,3.65
2019-05-11T17:10:01.321Z,4.92
2019-05-11T17:12:57.933Z,4.47
2019-05-11T17:15:48.462Z,2.65
2019-05-11T17:18:41.512Z,4.67
2019-05-11T17:21:37.783Z,4.03
2019-05-11T17:24:37.901Z,2.37
2019-05-11T17:27:30.153Z,4.67
2019-05-11T17:30:19.847Z,4.10
2019-05-11T17:33:08.841Z,4.50
2019-05-11T17:36:01.387Z,5.00
2019-05-11T17:38:54.182Z,4.05
2019-05-11T17:41:47.995Z,5.12
2019-05-11T17:44:41.580Z,4.47
2019-05-11T17:47:30.885Z,4.58
2019-05-11T17:50:23.853Z,4.97
2019-05-11T17:53:18.280Z,4.92
2019-05-11T17:56:10.730Z,9.25
2019-05-11T17:59:03.783Z,6.47
2019-05-11T18:01:58.080Z,6.10
2019-05-11T18:04:51.688Z,8.10
2019-05-11T18:07:46.026Z,3.77
2019-05-11T18:10:39.336Z,11.53
2019-05-11T18:13:33.160Z,4.40
2019-05-11T18:16:26.477Z,5.03
2019-05-11T18:19:30.537Z,6.58
2019-05-11T18:22:20.007Z,3.58
2019-05-11T18:25:14.165Z,7.10
2019-05-11T18:28:06.379Z,5.25
2019-05-11T18:30:59.434Z,11.50
2019-05-11T18:33:52.489Z,10.70
2019-05-11T18:36:45.545Z,10.13
2019-05-11T18:39:38.602Z,12.55
2019-05-11T18:42:31.657Z,8.90
2019-05-11T18:45:24.454Z,8.68
2019-05-11T18:48:18.673Z,7.75
2019-05-11T18:51:11.079Z,6.60
2019-05-11T18:54:03.883Z,7.17
2019-05-11T18:56:58.897Z,6.20
2019-05-11T18:59:51.272Z,6.15
2019-05-11T19:02:44.073Z,4.70
2019-05-11T19:05:38.609Z,4.47
2019-05-11T19:08:27.993Z,2.72
2019-05-11T19:11:28.893Z,2.95
2019-05-11T19:14:19.885Z,3.47
2019-05-11T19:17:25.992Z,2.65
2019-05-11T19:20:19.051Z,2.15
2019-05-11T19:23:22.856Z,1.75
2019-05-11T19:26:18.053Z,3.58
2019-05-11T19:29:11.271Z,3.90
2019-05-11T19:32:04.334Z,3.30
2019-05-11T19:34:58.413Z,3.92
2019-05-11T19:37:51.727Z,2.70
2019-05-11T19:40:44.776Z,1.95
2019-05-11T19:43:38.287Z,4.05
2019-05-11T19:46:31.400Z,2.70
2019-05-11T19:49:18.823Z,3.08
2019-05-11T19:52:09.832Z,3.00
2019-05-11T19:55:03.915Z,3.77
2019-05-11T19:57:56.971Z,1.37
2019-05-11T20:00:50.028Z,1.45
2019-05-11T20:03:42.827Z,2.05
2019-05-11T20:06:38.529Z,1.70
2019-05-11T20:09:30.986Z,1.20
2019-05-11T20:12:24.052Z,3.08
2019-05-11T20:15:18.757Z,3.85
2019-05-11T20:18:10.665Z,3.90
2019-05-11T20:21:15.434Z,4.00
2019-05-11T20:23:58.056Z,3.15
2019-05-11T20:26:51.114Z,2.85
2019-05-11T20:29:38.582Z,3.47
2019-05-11T20:32:31.364Z,2.62
2019-05-11T20:35:24.391Z,2.30
2019-05-11T20:38:18.784Z,2.77
2019-05-11T20:41:09.993Z,1.70
2019-05-11T20:44:03.050Z,4.20
2019-05-11T20:46:58.039Z,2.20
2019-05-11T20:49:49.692Z,4.15
2019-05-11T20:52:47.840Z,1.70
2019-05-11T20:55:38.343Z,2.10
2019-05-11T20:58:31.413Z,1.52
2019-05-11T21:01:28.598Z,3.77
2019-05-11T21:04:20.341Z,1.75
2019-05-11T21:07:27.470Z,2.27
2019-05-11T21:10:18.473Z,2.50
2019-05-11T21:13:12.048Z,2.00
2019-05-11T21:16:16.616Z,1.55
2019-05-11T21:19:21.195Z,1.17
2019-05-11T21:22:10.668Z,1.10
2019-05-11T21:24:59.625Z,1.82
2019-05-11T21:27:54.389Z,2.67
2019-05-11T21:30:49.323Z,2.10
2019-05-11T21:33:42.493Z,2.02
2019-05-11T21:36:37.703Z,4.30
2019-05-11T21:39:29.258Z,2.52
2019-05-11T21:42:32.040Z,2.05
2019-05-11T21:45:28.398Z,2.22
2019-05-11T21:48:20.967Z,1.50
2019-05-11T21:51:13.790Z,2.33
2019-05-11T21:54:08.365Z,1.80
2019-05-11T21:57:01.423Z,1.72
2019-05-11T21:59:54.730Z,2.45
2019-05-11T22:02:48.845Z,1.90
2019-05-11T22:05:41.871Z,3.05
2019-05-11T22:08:43.370Z,2.80
2019-05-11T22:11:38.472Z,2.95
2019-05-11T22:14:31.531Z,7.50
2019-05-11T22:17:27.931Z,1.62
2019-05-11T22:20:28.776Z,3.85
2019-05-11T22:23:21.193Z,2.83
2019-05-11T22:26:21.925Z,3.75
2019-05-11T22:29:14.728Z,2.58
2019-05-11T22:32:09.581Z,2.35
2019-05-11T22:35:02.654Z,2.30
2019-05-11T22:37:57.681Z,1.80
2019-05-11T22:40:51.048Z,1.20
2019-05-11T22:43:44.105Z,3.27
2019-05-11T22:46:58.116Z,4.92
2019-05-11T22:49:49.777Z,5.10
2019-05-11T22:52:42.477Z,3.52
2019-05-11T22:58:37.111Z,2.72
2019-05-11T23:01:30.087Z,3.27
2019-05-11T23:04:24.422Z,3.52
2019-05-11T23:07:18.576Z,6.65
2019-05-11T23:10:11.561Z,6.20
2019-05-11T23:13:04.361Z,9.05
2019-05-11T23:16:01.255Z,2.05
2019-05-11T23:18:57.128Z,6.28
2019-05-11T23:21:44.461Z,6.08
2019-05-11T23:24:37.353Z,6.45
2019-05-11T23:27:30.409Z,2.85
2019-05-11T23:30:20.270Z,3.15
2019-05-11T23:33:12.682Z,6.28
2019-05-11T23:36:07.832Z,4.97
2019-05-11T23:39:01.864Z,6.22
2019-05-11T23:41:55.950Z,4.53
2019-05-11T23:44:45.944Z,2.40
2019-05-11T23:47:34.380Z,1.92
2019-05-11T23:50:28.298Z,4.85
2019-05-11T23:53:20.743Z,5.05
2019-05-11T23:56:13.544Z,4.22
2019-05-11T23:59:02.833Z,1.70
